Aviation Digital Data Service (ADDS)

Output produced by METARs form (0950 UTC 25 February 2018)
found at http://aviationweather.gov/adds/metars/
 
KORH 250542Z 2506/2606 05006KT P6SM BKN200 
     FM251100 08008KT 2SM -PLRA OVC015 
     FM251300 09008KT 2SM -FZRAPL BR OVC015 
     FM251700 10008KT 1SM -FZRA BR OVC003 
     FM252100 07008KT 2SM BR OVC003 
     FM260000 02004KT 1/2SM FG OVC003 
     FM260300 31005KT 1SM BR BKN003